Time;durP1;ratioP1;P1;durP2;ratioP2;P2;SDS_P1;SDS_P2;PMS_P1;PMS_P2;Temp;Humidity;BMP_temperature;BMP_pressure;BME280_temperature;BME280_humidity;BME280_pressure;Samples;Min_cycle;Max_cycle;Signal;HPM_P1;HPM_P2
2021/12/27 00:00:26;;;;;;;20.25;11.15;;;-0.20;99.90;;;;;;4986653;28;20137;-66
2021/12/27 00:02:56;;;;;;;19.08;11.32;;;-0.10;99.90;;;;;;4988452;28;20134;-66
2021/12/27 00:05:21;;;;;;;17.38;10.90;;;-0.20;99.90;;;;;;4988080;28;20046;-66
2021/12/27 00:07:50;;;;;;;18.23;11.63;;;0.10;99.90;;;;;;4987040;28;20042;-66
2021/12/27 00:10:17;;;;;;;17.02;10.93;;;-0.20;99.90;;;;;;4989057;28;20539;-66
2021/12/27 00:12:43;;;;;;;19.02;11.38;;;-0.20;99.90;;;;;;4988625;28;20113;-66
2021/12/27 00:15:10;;;;;;;19.17;11.20;;;-0.30;99.90;;;;;;4988060;28;20162;-66
2021/12/27 00:17:36;;;;;;;17.60;12.02;;;-0.30;99.90;;;;;;4990803;28;20838;-66
2021/12/27 00:20:03;;;;;;;20.02;11.60;;;-0.30;99.90;;;;;;4986747;28;20062;-66
2021/12/27 00:22:29;;;;;;;16.13;10.77;;;-0.40;99.90;;;;;;4987598;28;20509;-66
2021/12/27 00:24:54;;;;;;;17.40;11.32;;;-0.30;99.90;;;;;;4987324;28;20050;-66
2021/12/27 00:27:20;;;;;;;17.98;11.07;;;-0.30;99.90;;;;;;4987055;28;20050;-68
2021/12/27 00:29:46;;;;;;;17.20;11.30;;;-0.10;99.90;;;;;;4986872;28;20045;-66
2021/12/27 00:32:12;;;;;;;21.17;12.32;;;-0.40;99.90;;;;;;4989390;28;20031;-65
2021/12/27 00:34:38;;;;;;;17.42;11.23;;;-0.40;99.90;;;;;;4986872;28;20046;-65
2021/12/27 00:37:08;;;;;;;18.17;11.68;;;-0.40;99.90;;;;;;4986659;28;20030;-65
2021/12/27 00:39:33;;;;;;;17.75;11.15;;;-0.50;99.90;;;;;;4987030;28;20446;-66
2021/12/27 00:42:00;;;;;;;18.98;11.95;;;-0.50;99.90;;;;;;4987099;28;20039;-66
2021/12/27 00:44:26;;;;;;;18.95;11.48;;;-0.50;99.90;;;;;;4988495;28;20423;-66
2021/12/27 00:46:52;;;;;;;21.98;11.27;;;-0.50;99.90;;;;;;4988917;28;20042;-66
2021/12/27 00:49:18;;;;;;;20.63;11.50;;;-0.50;99.90;;;;;;4986042;28;20056;-66
2021/12/27 00:51:43;;;;;;;18.65;11.43;;;-0.40;99.90;;;;;;4988230;28;20034;-65
2021/12/27 00:54:09;;;;;;;19.27;11.90;;;-0.50;99.90;;;;;;4987071;28;20050;-67
2021/12/27 00:56:35;;;;;;;17.35;11.50;;;-0.50;99.90;;;;;;4982047;28;20581;-65
2021/12/27 00:59:00;;;;;;;19.55;11.65;;;-0.50;99.90;;;;;;4985501;28;20108;-66
2021/12/27 01:01:26;;;;;;;18.02;11.43;;;-0.50;99.90;;;;;;4988425;28;20077;-65
2021/12/27 01:03:52;;;;;;;18.13;11.40;;;-0.50;99.90;;;;;;4990156;28;20111;-65
2021/12/27 01:06:18;;;;;;;19.20;11.35;;;-0.60;99.90;;;;;;4991140;28;20042;-65
2021/12/27 01:08:43;;;;;;;19.38;11.35;;;-0.60;99.90;;;;;;4992002;28;20074;-66
2021/12/27 01:11:27;;;;;;;18.58;11.00;;;0.30;99.90;;;;;;4992281;28;20046;-65
2021/12/27 01:14:11;;;;;;;17.73;12.05;;;-0.60;99.90;;;;;;4991983;28;20419;-67
2021/12/27 01:16:39;;;;;;;19.38;11.75;;;-0.60;99.90;;;;;;4990689;28;20542;-68
2021/12/27 01:19:06;;;;;;;19.15;11.38;;;-0.70;99.90;;;;;;4992258;28;20054;-67
2021/12/27 01:21:32;;;;;;;17.60;10.90;;;-0.70;99.90;;;;;;4989784;28;20050;-67
2021/12/27 01:23:58;;;;;;;18.90;11.18;;;-0.70;99.90;;;;;;4990869;28;20077;-67
2021/12/27 01:26:25;;;;;;;21.40;12.35;;;-0.70;99.90;;;;;;4987976;28;20434;-68
2021/12/27 01:28:52;;;;;;;18.17;11.52;;;-0.70;99.90;;;;;;4990936;28;20486;-67
2021/12/27 01:31:18;;;;;;;18.23;11.43;;;-0.70;99.90;;;;;;4990554;28;20457;-66
2021/12/27 01:33:45;;;;;;;19.70;11.55;;;-0.50;99.90;;;;;;4991821;28;20046;-68
2021/12/27 01:36:11;;;;;;;17.60;11.70;;;-0.70;99.90;;;;;;4992404;28;20231;-66
2021/12/27 01:38:39;;;;;;;20.75;11.68;;;-0.70;99.90;;;;;;4988062;28;20505;-68
2021/12/27 01:41:08;;;;;;;19.80;11.57;;;-0.70;99.90;;;;;;4992641;28;20058;-67
2021/12/27 01:43:36;;;;;;;20.13;11.68;;;-0.80;99.90;;;;;;4992962;28;20050;-66
2021/12/27 01:46:12;;;;;;;21.02;11.38;;;-0.40;99.90;;;;;;4992957;28;20050;-66
2021/12/27 01:48:40;;;;;;;19.98;11.30;;;-0.70;99.90;;;;;;4993334;28;20081;-66
2021/12/27 01:51:10;;;;;;;19.08;11.95;;;-0.80;99.90;;;;;;4992524;28;20061;-66
2021/12/27 01:53:39;;;;;;;19.35;12.55;;;-0.80;99.90;;;;;;4990272;28;20065;-66
2021/12/27 01:56:08;;;;;;;18.95;12.50;;;-0.70;99.90;;;;;;4993378;28;20038;-67
2021/12/27 01:58:35;;;;;;;19.80;12.20;;;-0.80;99.90;;;;;;4991108;28;20046;-66
2021/12/27 02:01:03;;;;;;;21.02;12.80;;;-0.80;99.90;;;;;;4991402;28;20123;-66
2021/12/27 02:03:31;;;;;;;19.92;11.93;;;-0.70;99.90;;;;;;4990204;28;20069;-66
2021/12/27 02:05:57;;;;;;;21.02;12.88;;;-0.30;99.90;;;;;;4973004;28;20150;-66
2021/12/27 02:08:23;;;;;;;20.25;11.98;;;-0.80;99.90;;;;;;4973638;28;20038;-66
2021/12/27 02:10:49;;;;;;;24.77;13.27;;;-0.80;99.90;;;;;;4991377;28;20034;-66
2021/12/27 02:13:16;;;;;;;20.48;12.55;;;-0.70;99.90;;;;;;4972484;28;20536;-66
2021/12/27 02:15:42;;;;;;;21.50;13.05;;;-0.70;99.90;;;;;;4991157;28;20053;-66
2021/12/27 02:18:11;;;;;;;22.23;13.50;;;-0.70;99.90;;;;;;4990623;28;20046;-67
2021/12/27 02:20:39;;;;;;;19.33;11.70;;;-0.70;99.90;;;;;;4989204;28;20062;-67
2021/12/27 02:23:15;;;;;;;22.45;13.50;;;-0.60;99.90;;;;;;4974300;28;20100;-67
2021/12/27 02:25:44;;;;;;;22.85;13.32;;;-0.60;99.90;;;;;;4994100;28;20172;-67
2021/12/27 02:28:10;;;;;;;20.85;12.70;;;-0.70;99.90;;;;;;4988714;28;20050;-68
2021/12/27 02:30:38;;;;;;;22.02;12.95;;;-0.70;99.90;;;;;;4990257;28;20062;-67
2021/12/27 02:33:05;;;;;;;20.25;12.70;;;-0.70;99.90;;;;;;4990883;28;20046;-67
2021/12/27 02:35:40;;;;;;;23.77;12.05;;;-0.80;99.90;;;;;;4990331;28;20550;-67
2021/12/27 02:38:08;;;;;;;26.67;13.55;;;-0.60;99.90;;;;;;4989753;28;20046;-67
2021/12/27 02:40:35;;;;;;;21.65;13.52;;;-0.70;99.90;;;;;;4991235;28;20126;-67
2021/12/27 02:43:28;;;;;;;23.88;13.80;;;-0.60;99.90;;;;;;4987700;28;20052;-68
2021/12/27 02:45:58;;;;;;;21.92;13.27;;;-0.20;99.90;;;;;;4991155;28;20064;-67
2021/12/27 02:48:26;;;;;;;23.13;13.32;;;-0.70;99.90;;;;;;4991506;28;20199;-68
2021/12/27 02:50:54;;;;;;;20.55;12.85;;;-0.60;99.90;;;;;;4991039;28;20126;-67
2021/12/27 02:53:20;;;;;;;25.30;13.57;;;-0.60;99.90;;;;;;4990961;28;20050;-67
2021/12/27 02:55:51;;;;;;;23.40;13.68;;;-0.60;99.90;;;;;;4973785;28;20054;-67
2021/12/27 02:58:17;;;;;;;22.15;13.63;;;-0.60;99.90;;;;;;4971969;28;20050;-67
2021/12/27 03:00:48;;;;;;;22.15;13.55;;;-0.60;99.90;;;;;;4989871;28;20088;-67
2021/12/27 03:03:14;;;;;;;24.40;13.68;;;-0.60;99.90;;;;;;4989255;28;20046;-67
2021/12/27 03:05:42;;;;;;;23.38;14.43;;;-0.60;99.90;;;;;;4991186;28;20077;-67
2021/12/27 03:08:13;;;;;;;21.00;13.30;;;-0.60;99.90;;;;;;4989781;28;20371;-65
2021/12/27 03:10:41;;;;;;;23.73;14.60;;;-0.60;99.90;;;;;;4992635;28;20073;-65
2021/12/27 03:13:07;;;;;;;23.42;13.82;;;-0.60;99.90;;;;;;4989626;28;20506;-65
2021/12/27 03:15:33;;;;;;;23.77;13.85;;;-0.60;99.90;;;;;;4974348;28;20046;-66
2021/12/27 03:17:59;;;;;;;19.65;11.82;;;-0.60;99.90;;;;;;4995427;28;20054;-65
2021/12/27 03:20:27;;;;;;;26.02;14.95;;;-0.50;99.90;;;;;;4988215;28;20054;-65
2021/12/27 03:22:53;;;;;;;25.00;14.60;;;-0.60;99.90;;;;;;4988838;28;20108;-65
2021/12/27 03:25:22;;;;;;;22.02;13.82;;;-0.60;99.90;;;;;;4989727;28;20054;-65
2021/12/27 03:27:49;;;;;;;25.58;14.40;;;-0.50;99.90;;;;;;4991096;28;20391;-66
2021/12/27 03:30:26;;;;;;;24.15;14.65;;;-0.50;99.90;;;;;;4989994;28;20069;-66
2021/12/27 03:32:52;;;;;;;24.38;14.38;;;-0.50;99.90;;;;;;4988081;28;20046;-65
2021/12/27 03:35:27;;;;;;;25.83;14.75;;;-0.50;99.90;;;;;;4988899;28;20391;-66
2021/12/27 03:37:56;;;;;;;23.58;14.35;;;-0.50;99.90;;;;;;4988207;28;20049;-65
2021/12/27 03:40:23;;;;;;;22.27;13.80;;;-0.40;99.90;;;;;;4988957;28;20352;-66
2021/12/27 03:42:50;;;;;;;20.13;13.63;;;-0.40;99.90;;;;;;4988739;28;20042;-66
2021/12/27 03:45:37;;;;;;;22.88;14.15;;;-0.50;99.90;;;;;;4990042;28;20053;-66
2021/12/27 03:48:05;;;;;;;24.67;14.10;;;-0.50;99.90;;;;;;4988171;28;20042;-66
2021/12/27 03:50:31;;;;;;;23.50;13.77;;;-0.50;99.90;;;;;;4989105;28;20053;-66
2021/12/27 03:52:56;;;;;;;26.17;14.30;;;-0.50;99.90;;;;;;4988649;28;20042;-66
2021/12/27 03:55:23;;;;;;;23.73;13.77;;;-0.50;99.90;;;;;;4989832;28;20043;-66
2021/12/27 03:57:53;;;;;;;24.25;14.57;;;-0.50;99.90;;;;;;4988493;28;20049;-66
2021/12/27 04:02:52;;;;;;;23.00;14.18;;;-0.50;99.90;;;;;;4991743;28;20057;-66
2021/12/27 04:05:19;;;;;;;24.55;13.95;;;-0.40;99.90;;;;;;4988162;28;20559;-66
2021/12/27 04:07:48;;;;;;;23.95;14.43;;;-0.40;99.90;;;;;;4988255;28;20100;-66
2021/12/27 04:10:15;;;;;;;26.15;14.35;;;-0.40;99.90;;;;;;4989692;28;20050;-66
2021/12/27 04:12:40;;;;;;;22.65;14.38;;;-0.40;99.90;;;;;;4989079;28;20057;-66
2021/12/27 04:15:09;;;;;;;21.83;14.88;;;-0.40;99.90;;;;;;4989139;28;20411;-66
2021/12/27 04:17:35;;;;;;;24.73;14.48;;;0.20;99.90;;;;;;4990222;28;20042;-66
2021/12/27 04:20:01;;;;;;;28.33;15.40;;;-0.40;99.90;;;;;;4987933;28;20062;-66
2021/12/27 04:22:26;;;;;;;23.85;14.93;;;-0.20;99.90;;;;;;4988619;28;20042;-66
2021/12/27 04:24:52;;;;;;;27.13;15.85;;;-0.40;99.90;;;;;;4982938;28;20038;-66
2021/12/27 04:27:20;;;;;;;25.42;15.75;;;-0.40;99.90;;;;;;4974009;28;20046;-66
2021/12/27 04:29:46;;;;;;;24.63;14.63;;;-0.40;99.90;;;;;;4987588;28;20046;-66
2021/12/27 04:32:11;;;;;;;23.92;15.50;;;-0.30;99.90;;;;;;4989382;28;20035;-66
2021/12/27 04:34:37;;;;;;;23.27;14.32;;;-0.30;99.90;;;;;;4987927;28;20042;-68
2021/12/27 04:37:03;;;;;;;26.75;15.52;;;-0.30;99.90;;;;;;4988948;28;20041;-65
2021/12/27 04:39:29;;;;;;;25.73;15.00;;;-0.20;99.90;;;;;;4988582;28;20188;-66
2021/12/27 04:41:55;;;;;;;23.00;15.35;;;-0.30;99.90;;;;;;4987704;28;20038;-65
2021/12/27 04:44:21;;;;;;;24.52;15.15;;;-0.30;99.90;;;;;;4988203;28;20083;-66
2021/12/27 04:46:47;;;;;;;27.02;15.85;;;-0.20;99.90;;;;;;4988289;28;20688;-66
2021/12/27 04:49:12;;;;;;;26.23;16.15;;;-0.20;99.90;;;;;;4988421;28;20082;-66
2021/12/27 04:51:38;;;;;;;24.02;15.35;;;-0.20;99.90;;;;;;4989099;28;20140;-66
2021/12/27 04:54:04;;;;;;;25.75;16.20;;;-0.20;99.90;;;;;;4988070;28;20096;-66
2021/12/27 04:56:29;;;;;;;26.10;15.85;;;-0.20;99.90;;;;;;4981348;28;20042;-66
2021/12/27 04:58:55;;;;;;;26.67;16.05;;;-0.20;99.90;;;;;;4972132;28;20113;-66
2021/12/27 05:01:22;;;;;;;26.50;16.75;;;-0.20;99.90;;;;;;4982936;28;20376;-66
2021/12/27 05:03:48;;;;;;;27.02;15.70;;;-0.20;99.90;;;;;;4987720;28;20401;-66
2021/12/27 05:06:14;;;;;;;27.20;15.65;;;-0.20;99.90;;;;;;4988801;28;20129;-66
2021/12/27 05:08:41;;;;;;;29.90;16.80;;;-0.20;99.90;;;;;;4988237;28;20403;-66
2021/12/27 05:11:07;;;;;;;25.00;15.73;;;-0.20;99.90;;;;;;4986541;28;20466;-66
2021/12/27 05:13:33;;;;;;;24.35;15.57;;;-0.20;99.90;;;;;;4987186;28;20496;-66
2021/12/27 05:16:00;;;;;;;26.08;15.60;;;-0.10;99.90;;;;;;4987867;28;20073;-66
2021/12/27 05:18:26;;;;;;;25.75;15.20;;;-0.20;99.90;;;;;;4987148;28;20376;-66
2021/12/27 05:20:51;;;;;;;25.17;15.88;;;-0.10;99.90;;;;;;4989399;28;20062;-66
2021/12/27 05:23:17;;;;;;;26.27;16.08;;;-0.10;99.90;;;;;;4989358;28;20544;-66
2021/12/27 05:25:43;;;;;;;27.42;16.25;;;0.10;99.90;;;;;;4991178;28;20364;-66
2021/12/27 05:28:09;;;;;;;27.00;15.27;;;0.00;99.90;;;;;;4988149;28;20093;-66
2021/12/27 05:30:36;;;;;;;26.25;14.98;;;0.00;99.90;;;;;;4987637;28;20050;-66
2021/12/27 05:33:02;;;;;;;26.67;16.70;;;0.00;99.90;;;;;;4986941;28;20051;-66
2021/12/27 05:35:28;;;;;;;23.27;15.23;;;0.10;99.90;;;;;;4987962;28;20044;-66
2021/12/27 05:37:54;;;;;;;26.42;15.80;;;0.00;99.90;;;;;;4987099;28;20038;-66
2021/12/27 05:40:22;;;;;;;27.83;16.17;;;0.00;99.90;;;;;;4986530;28;20042;-66
2021/12/27 05:42:53;;;;;;;28.45;16.88;;;0.60;99.90;;;;;;4987384;28;20042;-66
2021/12/27 05:45:19;;;;;;;29.48;18.77;;;0.10;99.90;;;;;;4986301;28;20125;-66
2021/12/27 05:47:46;;;;;;;30.63;18.55;;;0.00;99.90;;;;;;4972516;28;20051;-66
2021/12/27 05:50:17;;;;;;;30.60;17.60;;;0.00;99.90;;;;;;4984562;28;20056;-66
2021/12/27 05:52:43;;;;;;;31.20;18.20;;;0.00;99.90;;;;;;4992490;28;20112;-66
2021/12/27 05:55:10;;;;;;;29.85;18.70;;;0.00;99.90;;;;;;4992224;28;20038;-65
2021/12/27 05:57:36;;;;;;;31.38;18.90;;;0.00;99.90;;;;;;4977517;28;20189;-66
2021/12/27 06:00:05;;;;;;;34.42;19.75;;;-0.10;99.90;;;;;;4989647;28;20370;-66
2021/12/27 06:02:31;;;;;;;33.03;20.50;;;-0.10;99.90;;;;;;4990823;28;20042;-66
2021/12/27 06:04:56;;;;;;;33.72;19.77;;;-0.20;99.90;;;;;;4979604;28;20034;-66
2021/12/27 06:07:22;;;;;;;37.25;21.90;;;0.10;99.90;;;;;;4989898;28;20039;-66
2021/12/27 06:09:47;;;;;;;37.25;21.35;;;-0.10;99.90;;;;;;4992179;28;20161;-66
2021/12/27 06:12:13;;;;;;;33.78;20.60;;;-0.10;99.90;;;;;;4991000;28;20428;-66
2021/12/27 06:14:39;;;;;;;35.83;21.13;;;-0.20;99.90;;;;;;4989684;28;20046;-66
2021/12/27 06:17:05;;;;;;;39.08;21.85;;;0.00;99.90;;;;;;4990804;28;20078;-66
2021/12/27 06:19:31;;;;;;;37.75;21.45;;;0.00;99.90;;;;;;4992260;28;20045;-66
2021/12/27 06:21:56;;;;;;;38.00;22.20;;;0.10;99.90;;;;;;4991449;28;20050;-66
2021/12/27 06:24:22;;;;;;;48.58;23.20;;;-0.20;99.90;;;;;;4989250;28;20073;-66
2021/12/27 06:26:48;;;;;;;37.00;21.60;;;0.20;99.90;;;;;;4973706;28;20069;-66
2021/12/27 06:29:14;;;;;;;43.97;22.88;;;-0.20;99.90;;;;;;4990242;28;20046;-66
2021/12/27 06:31:40;;;;;;;43.60;23.02;;;-0.10;99.90;;;;;;4989242;28;20078;-66
2021/12/27 06:34:05;;;;;;;41.40;23.15;;;-0.20;99.90;;;;;;4990693;28;20132;-66
2021/12/27 06:36:32;;;;;;;40.25;22.88;;;-0.10;99.90;;;;;;4986133;28;20038;-66
2021/12/27 06:38:58;;;;;;;40.00;21.88;;;-0.10;99.90;;;;;;4993475;28;20054;-66
2021/12/27 06:41:24;;;;;;;38.25;22.42;;;-0.10;99.90;;;;;;4971912;28;20046;-66
2021/12/27 06:43:52;;;;;;;39.78;22.75;;;-0.10;99.90;;;;;;4990218;28;20512;-66
2021/12/27 06:46:18;;;;;;;37.97;22.80;;;-0.10;99.90;;;;;;4988523;28;20046;-66
2021/12/27 06:48:44;;;;;;;39.42;22.13;;;-0.10;99.90;;;;;;4989304;28;20054;-66
2021/12/27 06:51:09;;;;;;;37.20;21.38;;;-0.10;99.90;;;;;;4989587;28;20487;-66
2021/12/27 06:53:35;;;;;;;41.45;22.33;;;0.00;99.90;;;;;;4989841;28;20856;-66
2021/12/27 06:56:02;;;;;;;38.42;21.73;;;0.00;99.90;;;;;;4991302;28;20483;-66
2021/12/27 06:58:27;;;;;;;39.10;21.70;;;0.00;99.90;;;;;;4990597;28;20444;-66
2021/12/27 07:00:53;;;;;;;39.10;22.48;;;0.00;99.90;;;;;;4990294;28;20116;-66
2021/12/27 07:03:19;;;;;;;44.00;22.95;;;0.00;99.90;;;;;;4988915;28;20050;-66
2021/12/27 07:05:45;;;;;;;40.00;22.23;;;0.00;99.90;;;;;;4991428;28;20051;-66
2021/12/27 07:08:11;;;;;;;40.25;21.98;;;0.10;99.90;;;;;;4990385;28;20058;-66
2021/12/27 07:10:37;;;;;;;43.00;22.02;;;0.10;99.90;;;;;;4992443;28;20042;-66
2021/12/27 07:13:03;;;;;;;38.03;21.33;;;0.10;99.90;;;;;;4992386;28;20093;-66
2021/12/27 07:15:30;;;;;;;41.22;21.85;;;0.20;99.90;;;;;;4989574;28;20487;-66
2021/12/27 07:17:56;;;;;;;44.13;21.00;;;0.20;99.90;;;;;;4988595;28;20034;-67
2021/12/27 07:20:22;;;;;;;45.15;21.33;;;0.20;99.90;;;;;;4988801;28;20062;-66
2021/12/27 07:22:48;;;;;;;41.78;22.42;;;0.20;99.90;;;;;;4989888;28;20130;-67
2021/12/27 07:25:13;;;;;;;42.50;21.60;;;0.20;99.90;;;;;;4990453;28;20042;-67
2021/12/27 07:27:40;;;;;;;41.85;21.30;;;0.10;99.90;;;;;;4989431;28;20094;-66
2021/12/27 07:30:09;;;;;;;43.08;21.75;;;0.10;99.90;;;;;;4989970;28;20053;-67
2021/12/27 07:32:35;;;;;;;51.08;24.20;;;0.10;99.90;;;;;;4990122;28;20046;-67
2021/12/27 07:35:01;;;;;;;46.13;22.80;;;0.10;99.90;;;;;;4990487;28;20744;-66
2021/12/27 07:37:27;;;;;;;40.22;21.58;;;0.10;99.90;;;;;;4986978;28;20510;-66
2021/12/27 07:39:52;;;;;;;50.65;24.88;;;0.10;99.90;;;;;;4989894;28;20089;-66
2021/12/27 07:42:18;;;;;;;51.38;24.00;;;0.10;99.90;;;;;;4987747;28;20128;-66
2021/12/27 07:44:43;;;;;;;49.72;24.75;;;0.00;99.90;;;;;;4987263;28;20050;-67
2021/12/27 07:47:09;;;;;;;54.35;24.92;;;0.00;99.90;;;;;;4990330;28;20054;-67
2021/12/27 07:49:36;;;;;;;45.85;24.02;;;0.00;99.90;;;;;;4992684;28;20382;-67
2021/12/27 07:52:03;;;;;;;52.65;25.38;;;0.00;99.90;;;;;;4992074;28;20050;-66
2021/12/27 07:54:29;;;;;;;46.75;24.98;;;0.00;99.90;;;;;;4990175;28;20128;-67
2021/12/27 07:56:56;;;;;;;58.30;26.35;;;0.00;99.90;;;;;;4989794;28;20482;-66
2021/12/27 07:59:22;;;;;;;51.22;25.65;;;0.00;99.90;;;;;;4988542;28;20138;-66
2021/12/27 08:01:47;;;;;;;49.05;25.60;;;0.00;99.90;;;;;;4988249;28;20376;-66
2021/12/27 08:04:13;;;;;;;50.90;26.38;;;0.10;99.90;;;;;;4991236;28;20053;-67
2021/12/27 08:06:38;;;;;;;50.60;24.67;;;0.10;99.90;;;;;;4988446;28;20057;-66
2021/12/27 08:09:06;;;;;;;42.88;24.35;;;0.10;99.90;;;;;;4987640;28;20065;-65
2021/12/27 08:11:32;;;;;;;55.25;25.23;;;0.20;99.90;;;;;;4988405;28;20137;-65
2021/12/27 08:13:57;;;;;;;45.90;23.90;;;0.20;99.90;;;;;;4984470;28;20471;-65
2021/12/27 08:16:24;;;;;;;46.75;24.15;;;0.20;99.90;;;;;;4969864;28;20490;-67
2021/12/27 08:18:56;;;;;;;44.42;23.15;;;0.20;99.90;;;;;;4977532;28;20050;-67
2021/12/27 08:21:23;;;;;;;45.75;23.63;;;0.20;99.90;;;;;;4988812;28;20407;-64
2021/12/27 08:23:50;;;;;;;42.00;22.23;;;0.20;99.90;;;;;;4989102;28;20055;-65
2021/12/27 08:26:18;;;;;;;41.33;22.33;;;0.20;99.90;;;;;;4986628;28;20479;-66
2021/12/27 08:28:45;;;;;;;42.13;22.50;;;0.20;99.90;;;;;;4986623;28;20034;-65
2021/12/27 08:31:13;;;;;;;44.80;22.95;;;0.30;99.90;;;;;;4988372;28;20454;-65
2021/12/27 08:33:39;;;;;;;39.47;21.80;;;0.30;99.90;;;;;;4988584;28;20363;-67
2021/12/27 08:36:05;;;;;;;45.45;23.65;;;0.30;99.90;;;;;;4989151;28;20043;-65
2021/12/27 08:38:31;;;;;;;41.47;20.42;;;0.30;99.90;;;;;;4987122;28;20076;-64
2021/12/27 08:40:57;;;;;;;48.65;24.23;;;0.30;99.90;;;;;;4987491;28;20069;-67
2021/12/27 08:43:23;;;;;;;46.78;23.83;;;0.30;99.90;;;;;;4986656;28;20039;-68
2021/12/27 08:45:50;;;;;;;41.83;22.15;;;0.30;99.90;;;;;;4987453;28;20111;-65
2021/12/27 08:48:16;;;;;;;42.47;22.55;;;0.40;99.90;;;;;;4968907;28;20092;-67
2021/12/27 08:50:42;;;;;;;40.88;21.65;;;0.40;99.90;;;;;;4976104;28;20086;-67
2021/12/27 08:53:08;;;;;;;44.20;22.65;;;0.40;99.90;;;;;;4990084;28;20100;-68
2021/12/27 08:55:35;;;;;;;41.80;21.30;;;0.40;99.90;;;;;;4990586;28;20351;-66
2021/12/27 08:58:02;;;;;;;46.67;21.83;;;0.50;99.90;;;;;;4988063;28;20057;-65
2021/12/27 09:00:27;;;;;;;45.42;22.70;;;0.40;99.90;;;;;;4988154;28;20065;-65
2021/12/27 09:02:53;;;;;;;45.63;21.08;;;0.50;99.90;;;;;;4987652;28;20483;-66
2021/12/27 09:05:19;;;;;;;45.15;22.70;;;0.50;99.90;;;;;;4987316;28;20577;-67
2021/12/27 09:07:44;;;;;;;41.88;21.73;;;0.50;99.90;;;;;;4985863;28;20050;-66
2021/12/27 09:10:10;;;;;;;41.58;21.58;;;0.50;99.90;;;;;;4988446;28;20510;-66
2021/12/27 09:12:38;;;;;;;45.10;21.48;;;0.60;99.90;;;;;;4990140;28;20045;-66
2021/12/27 09:15:05;;;;;;;43.47;22.17;;;0.60;99.90;;;;;;4990171;28;20348;-65
2021/12/27 09:17:30;;;;;;;42.53;21.95;;;0.60;99.90;;;;;;4988445;28;20042;-66
2021/12/27 09:19:56;;;;;;;43.88;22.52;;;0.60;99.90;;;;;;4988592;28;20058;-66
2021/12/27 09:22:21;;;;;;;43.30;22.63;;;0.60;99.90;;;;;;4990939;28;20093;-66
2021/12/27 09:24:48;;;;;;;47.90;21.45;;;0.60;99.90;;;;;;4992538;28;20077;-66
2021/12/27 09:27:14;;;;;;;47.40;23.65;;;0.60;99.90;;;;;;4990380;28;20475;-66
2021/12/27 09:29:42;;;;;;;44.90;21.73;;;0.60;99.90;;;;;;4990487;28;20038;-66
2021/12/27 09:32:08;;;;;;;46.72;22.30;;;0.60;99.90;;;;;;4990939;28;20030;-66
2021/12/27 09:34:33;;;;;;;44.95;22.02;;;0.70;99.90;;;;;;4990580;28;20069;-65
2021/12/27 09:36:59;;;;;;;41.53;21.25;;;0.70;99.90;;;;;;4991882;28;20121;-65
2021/12/27 09:39:24;;;;;;;45.88;22.65;;;0.70;99.90;;;;;;4990057;28;20050;-67
2021/12/27 09:41:50;;;;;;;39.95;20.35;;;0.70;99.90;;;;;;4988196;28;20038;-66
2021/12/27 09:44:15;;;;;;;45.38;22.08;;;0.70;99.90;;;;;;4992204;28;20078;-66
2021/12/27 09:46:41;;;;;;;46.95;22.40;;;0.80;99.90;;;;;;4993009;28;20034;-66
2021/12/27 09:49:11;;;;;;;52.03;23.52;;;1.90;99.90;;;;;;4990381;28;20050;-66
2021/12/27 09:51:38;;;;;;;50.20;22.67;;;0.80;99.90;;;;;;4991431;28;20046;-66
2021/12/27 09:54:05;;;;;;;49.33;23.27;;;0.80;99.90;;;;;;4991957;28;20140;-65
2021/12/27 09:56:31;;;;;;;48.42;23.23;;;0.80;99.90;;;;;;4991023;28;20154;-66
2021/12/27 09:58:57;;;;;;;49.47;22.52;;;0.70;99.90;;;;;;4991170;28;20064;-65
2021/12/27 10:01:22;;;;;;;52.20;24.15;;;0.70;99.90;;;;;;4991030;28;20050;-66
2021/12/27 10:03:56;;;;;;;47.22;23.20;;;0.70;99.90;;;;;;4989825;28;20200;-66
2021/12/27 10:06:23;;;;;;;53.05;24.88;;;0.70;99.90;;;;;;4991048;28;20054;-65
2021/12/27 10:08:51;;;;;;;54.95;24.52;;;0.70;99.90;;;;;;4991037;28;20047;-65
2021/12/27 10:11:26;;;;;;;50.33;22.98;;;0.70;99.90;;;;;;4989093;28;20058;-66
2021/12/27 10:14:08;;;;;;;48.28;23.70;;;0.70;99.90;;;;;;4982849;28;20053;-66
2021/12/27 10:16:38;;;;;;;56.58;25.90;;;1.10;99.90;;;;;;4988577;28;20053;-65
2021/12/27 10:19:07;;;;;;;59.00;26.40;;;0.60;99.90;;;;;;4992097;28;20439;-66
2021/12/27 10:21:33;;;;;;;66.75;27.90;;;0.70;99.90;;;;;;4991205;28;20382;-66
2021/12/27 10:24:08;;;;;;;63.47;26.58;;;0.70;99.90;;;;;;4990347;28;20483;-66
2021/12/27 10:26:35;;;;;;;59.85;26.25;;;0.70;99.90;;;;;;4992478;28;20438;-66
2021/12/27 10:29:16;;;;;;;71.00;26.95;;;0.80;99.90;;;;;;4993845;28;20433;-66
2021/12/27 10:31:54;;;;;;;64.65;26.05;;;0.80;99.90;;;;;;4993075;28;20529;-68
2021/12/27 10:34:21;;;;;;;67.97;27.13;;;0.80;99.90;;;;;;4989377;28;20066;-69
2021/12/27 10:37:26;;;;;;;71.43;27.50;;;0.80;99.90;;;;;;4986848;28;20117;-67
2021/12/27 10:39:59;;;;;;;73.03;26.88;;;0.80;99.90;;;;;;4975542;28;20058;-67
2021/12/27 10:42:29;;;;;;;78.60;28.30;;;0.80;99.90;;;;;;4990786;28;20054;-65
2021/12/27 10:44:58;;;;;;;71.55;27.67;;;0.90;99.90;;;;;;4988501;28;20460;-68
2021/12/27 10:47:43;;;;;;;72.70;29.15;;;0.90;99.90;;;;;;4988796;28;20529;-66
2021/12/27 10:50:23;;;;;;;78.85;28.63;;;0.90;99.90;;;;;;4974682;28;20054;-66
2021/12/27 10:52:59;;;;;;;83.15;28.02;;;0.90;99.90;;;;;;4988681;28;20081;-66
2021/12/27 10:55:38;;;;;;;78.82;29.13;;;1.40;99.90;;;;;;4989917;28;20473;-65
2021/12/27 10:58:27;;;;;;;76.53;28.92;;;1.00;99.90;;;;;;4987622;28;20284;-65
2021/12/27 11:00:59;;;;;;;78.95;28.35;;;1.00;99.90;;;;;;4989375;28;20050;-67
2021/12/27 11:03:31;;;;;;;76.13;29.27;;;1.00;99.90;;;;;;4990575;28;20541;-64
2021/12/27 11:05:57;;;;;;;81.55;29.15;;;1.10;99.90;;;;;;4990730;28;20487;-66
2021/12/27 11:08:23;;;;;;;82.47;29.42;;;2.30;99.90;;;;;;4988500;28;20046;-65
2021/12/27 11:10:49;;;;;;;96.80;31.88;;;1.10;99.90;;;;;;4990165;28;20049;-66
2021/12/27 11:13:15;;;;;;;92.40;30.67;;;1.20;99.90;;;;;;4988091;28;20085;-66
2021/12/27 11:15:42;;;;;;;97.10;29.25;;;1.20;99.90;;;;;;4990631;28;20081;-65
2021/12/27 11:18:08;;;;;;;89.80;30.88;;;1.20;99.90;;;;;;4989730;28;20050;-65
2021/12/27 11:20:35;;;;;;;95.68;30.50;;;1.30;99.90;;;;;;4986592;28;20149;-65
2021/12/27 11:23:03;;;;;;;94.25;31.02;;;1.40;99.90;;;;;;4985971;28;20051;-65
2021/12/27 11:25:38;;;;;;;91.82;28.98;;;1.40;99.90;;;;;;4967348;28;20058;-66
2021/12/27 11:28:26;;;;;;;95.45;28.48;;;1.50;99.90;;;;;;4987958;28;20043;-66
2021/12/27 11:30:53;;;;;;;91.03;28.83;;;1.50;99.90;;;;;;4987632;28;20039;-74
2021/12/27 11:33:20;;;;;;;88.43;30.02;;;1.60;99.90;;;;;;4984209;28;20046;-75
2021/12/27 11:35:56;;;;;;;88.22;29.00;;;1.60;99.90;;;;;;4968853;28;20125;-75
2021/12/27 11:38:34;;;;;;;102.47;29.65;;;1.60;99.90;;;;;;4983085;28;20156;-76
2021/12/27 11:41:02;;;;;;;99.75;28.95;;;1.60;99.90;;;;;;4985816;28;20050;-74
2021/12/27 11:43:50;;;;;;;103.22;29.52;;;1.90;99.90;;;;;;4983418;28;20101;-74
2021/12/27 11:46:15;;;;;;;101.32;30.38;;;1.60;99.90;;;;;;4986200;28;20615;-77
2021/12/27 11:48:47;;;;;;;101.15;31.67;;;1.60;99.90;;;;;;4983376;28;20570;-74
2021/12/27 11:51:14;;;;;;;120.40;31.08;;;1.60;99.90;;;;;;4985918;28;20080;-74
2021/12/27 11:53:54;;;;;;;109.30;31.40;;;1.60;99.90;;;;;;4983073;28;20050;-74
2021/12/27 11:56:38;;;;;;;120.95;29.67;;;1.60;99.90;;;;;;4984192;28;20058;-74
2021/12/27 11:59:22;;;;;;;116.80;30.58;;;1.60;99.90;;;;;;4985371;28;20081;-75
2021/12/27 12:02:08;;;;;;;116.82;30.13;;;1.50;99.90;;;;;;4983583;28;20061;-75
2021/12/27 12:05:09;;;;;;;118.57;31.65;;;1.50;99.90;;;;;;4983288;28;20062;-75
2021/12/27 12:07:35;;;;;;;143.90;31.92;;;1.50;99.90;;;;;;4982992;28;20046;-67
2021/12/27 12:10:05;;;;;;;106.18;30.45;;;1.10;99.90;;;;;;4964978;28;20054;-67
2021/12/27 12:12:33;;;;;;;140.23;32.22;;;1.60;99.90;;;;;;4988509;28;20096;-67
2021/12/27 12:15:00;;;;;;;112.07;30.70;;;1.60;99.90;;;;;;4972556;28;20436;-67
2021/12/27 12:17:43;;;;;;;117.82;30.33;;;1.60;99.90;;;;;;4977741;28;20050;-67
2021/12/27 12:20:35;;;;;;;109.80;30.30;;;1.60;99.90;;;;;;4987419;28;20046;-67
2021/12/27 12:23:04;;;;;;;130.20;31.25;;;1.50;99.90;;;;;;4984319;28;20057;-67
2021/12/27 12:25:30;;;;;;;113.70;28.45;;;1.60;99.90;;;;;;4986678;28;20050;-67
2021/12/27 12:27:59;;;;;;;87.80;28.45;;;1.60;99.90;;;;;;4987699;28;20415;-66
2021/12/27 12:30:32;;;;;;;95.32;29.25;;;1.60;99.90;;;;;;4988074;28;20057;-66
2021/12/27 12:32:59;;;;;;;111.95;30.00;;;1.70;99.90;;;;;;4988168;28;20039;-66
2021/12/27 12:35:34;;;;;;;118.22;30.27;;;1.80;99.90;;;;;;4986533;28;20050;-66
2021/12/27 12:38:17;;;;;;;100.97;30.45;;;1.80;99.90;;;;;;4986973;28;20394;-66